Terminal Aerodrome Forecast
Issued by NWS

Home | Current Version | Previous Version | Text Only | Print | Product List | Glossary On
Versions: 1 2 3 4 5 6 7 8 9 10 11 12 13 14 15 16 17 18 19 20 21 22
000
FTUS42 KMHX 251700
TAFOAJ
TAF
KOAJ 251723Z 2518/2618 25004KT P6SM BKN006 OVC020
     FM260100 33009G14KT 4SM -RA BR OVC020
     FM260400 02015G20KT 2SM RA OVC007
     FM261500 33015G20KT P6SM VCSH OVC020
      AMD LTD TO CLD VIS AND WIND=

USA.gov is the U.S. government's official web portal to all federal, state and local government web resources and services.